Time;durP1;ratioP1;P1;durP2;ratioP2;P2;SDS_P1;SDS_P2;PMS_P1;PMS_P2;Temp;Humidity;BMP_temperature;BMP_pressure;BME280_temperature;BME280_humidity;BME280_pressure;Samples;Min_cycle;Max_cycle;Signal;HPM_P1;HPM_P2
2022/01/04 00:00:05;;;;;;;0.40;0.40;;;;;;;22.96;11.15;98284.72;5077111;28;20059;-65
2022/01/04 00:02:31;;;;;;;0.60;0.60;;;;;;;22.95;11.15;98277.66;5076566;28;20060;-66
2022/01/04 00:04:56;;;;;;;0.40;0.40;;;;;;;22.94;11.12;98270.63;5076441;28;20028;-66
2022/01/04 00:07:22;;;;;;;0.52;0.52;;;;;;;22.86;11.20;98274.13;5075563;28;20016;-66
2022/01/04 00:09:49;;;;;;;0.50;0.50;;;;;;;22.94;11.14;98264.34;5076854;28;20133;-66
2022/01/04 00:14:59;;;;;;;0.60;0.60;;;;;;;22.92;11.19;98261.16;5076416;28;20123;-66
2022/01/04 00:17:24;;;;;;;0.60;0.60;;;;;;;22.91;11.15;98260.34;5076188;28;20044;-66
2022/01/04 00:19:50;;;;;;;0.55;0.55;;;;;;;22.90;11.21;98258.75;5076365;28;20528;-66
2022/01/04 00:22:15;;;;;;;0.50;0.50;;;;;;;22.90;11.08;98250.56;5070810;28;20029;-66
2022/01/04 00:24:41;;;;;;;0.60;0.60;;;;;;;22.87;11.17;98248.53;5056337;28;20033;-65
2022/01/04 00:27:06;;;;;;;0.45;0.45;;;;;;;22.90;11.17;98241.63;5055997;28;20025;-66
2022/01/04 00:29:31;;;;;;;0.57;0.57;;;;;;;22.88;11.28;98239.22;5056253;28;20025;-66
2022/01/04 00:31:57;;;;;;;0.60;0.60;;;;;;;22.90;11.17;98242.41;5056016;28;20025;-66
2022/01/04 00:34:22;;;;;;;0.55;0.55;;;;;;;22.89;11.27;98246.28;5056910;28;20036;-65
2022/01/04 00:36:48;;;;;;;0.50;0.50;;;;;;;22.86;11.24;98236.00;5055958;28;20032;-66
2022/01/04 00:39:13;;;;;;;0.50;0.50;;;;;;;22.90;11.09;98242.41;5054130;28;20379;-65
2022/01/04 00:41:38;;;;;;;0.57;0.57;;;;;;;22.90;11.16;98226.06;5055936;28;20037;-65
2022/01/04 00:44:04;;;;;;;0.50;0.50;;;;;;;22.87;11.21;98227.53;5055948;28;20489;-65
2022/01/04 00:46:29;;;;;;;0.50;0.50;;;;;;;22.89;11.13;98221.75;5055872;28;20025;-65
2022/01/04 00:49:10;;;;;;;0.57;0.57;;;;;;;22.90;11.19;98219.81;5055468;28;20460;-66
2022/01/04 00:51:46;;;;;;;0.60;0.60;;;;;;;22.92;11.12;98217.56;5054371;28;20025;-66
2022/01/04 00:54:13;;;;;;;0.50;0.50;;;;;;;22.92;11.13;98212.13;5055836;28;20100;-65
2022/01/04 00:56:38;;;;;;;0.50;0.50;;;;;;;22.84;11.20;98216.47;5055414;28;20502;-66
2022/01/04 00:59:04;;;;;;;0.50;0.50;;;;;;;22.85;11.21;98215.34;5055368;28;20036;-66
2022/01/04 01:01:29;;;;;;;0.50;0.50;;;;;;;22.90;11.04;98220.63;5055353;28;20029;-66
2022/01/04 01:03:55;;;;;;;0.60;0.60;;;;;;;22.85;11.13;98218.06;5055326;28;20391;-66
2022/01/04 01:06:20;;;;;;;1.48;0.63;;;;;;;22.80;11.31;98215.50;5055666;28;20082;-66
2022/01/04 01:08:46;;;;;;;0.65;0.65;;;;;;;22.83;11.21;98201.25;5055934;28;20071;-65
2022/01/04 01:11:11;;;;;;;0.68;0.68;;;;;;;22.89;11.21;98208.16;5056164;28;20029;-66
2022/01/04 01:13:37;;;;;;;0.65;0.65;;;;;;;22.84;11.07;98205.59;5056276;28;20028;-66
2022/01/04 01:16:02;;;;;;;0.50;0.50;;;;;;;22.86;11.01;98206.84;5055046;28;20048;-66
2022/01/04 01:18:28;;;;;;;0.52;0.52;;;;;;;22.77;11.22;98206.06;5055655;28;20032;-67
2022/01/04 01:20:53;;;;;;;0.60;0.60;;;;;;;22.85;11.07;98201.72;5055048;28;20029;-66
2022/01/04 01:23:19;;;;;;;0.60;0.60;;;;;;;22.84;11.00;98205.59;5066052;28;20024;-65
2022/01/04 01:25:44;;;;;;;0.50;0.50;;;;;;;22.83;11.13;98193.88;5074903;28;20474;-66
2022/01/04 01:28:10;;;;;;;0.70;0.70;;;;;;;22.83;11.10;98190.34;5075231;28;20078;-66
2022/01/04 01:30:39;;;;;;;0.93;0.70;;;;;;;22.87;11.03;98199.50;5075168;28;20374;-65
2022/01/04 01:33:04;;;;;;;0.50;0.50;;;;;;;22.85;11.05;98202.53;5073541;28;20059;-66
2022/01/04 01:35:30;;;;;;;0.60;0.60;;;;;;;22.85;11.05;98204.44;5075178;28;20050;-66
2022/01/04 01:37:57;;;;;;;0.88;0.80;;;;;;;22.82;10.94;98202.38;5074693;28;20017;-65
2022/01/04 01:40:23;;;;;;;0.70;0.70;;;;;;;22.86;10.95;98197.88;5075112;28;20104;-65
2022/01/04 01:42:48;;;;;;;0.70;0.70;;;;;;;22.88;11.14;98199.16;5074728;28;20032;-66
2022/01/04 01:45:16;;;;;;;0.47;0.47;;;;;;;22.83;10.98;98193.88;5073712;28;20089;-66
2022/01/04 01:47:42;;;;;;;0.50;0.50;;;;;;;22.82;11.01;98196.94;5074972;28;20047;-65
2022/01/04 01:50:08;;;;;;;0.70;0.70;;;;;;;22.81;11.01;98187.16;5073908;28;20024;-65
2022/01/04 01:52:34;;;;;;;0.68;0.68;;;;;;;22.85;11.08;98188.94;5074713;28;20051;-66
2022/01/04 01:54:59;;;;;;;0.75;0.60;;;;;;;22.82;11.13;98186.06;5073390;28;20025;-66
2022/01/04 01:57:25;;;;;;;0.60;0.60;;;;;;;22.82;11.07;98188.78;5074740;28;20032;-66
2022/01/04 01:59:50;;;;;;;0.70;0.70;;;;;;;22.83;11.02;98179.47;5074925;28;20020;-65
2022/01/04 02:02:16;;;;;;;0.57;0.57;;;;;;;22.85;10.94;98180.75;5074613;28;20401;-65
2022/01/04 02:04:41;;;;;;;0.57;0.57;;;;;;;22.84;11.09;98190.03;5074200;28;20429;-65
2022/01/04 02:07:07;;;;;;;0.70;0.70;;;;;;;22.81;10.82;98184.44;5073017;28;20116;-66
2022/01/04 02:09:34;;;;;;;0.60;0.60;;;;;;;22.77;11.09;98178.84;5056337;28;20024;-66
2022/01/04 02:12:00;;;;;;;0.65;0.65;;;;;;;22.81;10.90;98179.78;5072944;28;20074;-65
2022/01/04 02:14:26;;;;;;;0.57;0.57;;;;;;;22.83;11.11;98184.91;5074011;28;20025;-65
2022/01/04 02:16:51;;;;;;;0.70;0.70;;;;;;;22.79;11.10;98181.25;5073903;28;20148;-66
2022/01/04 02:19:17;;;;;;;0.60;0.60;;;;;;;22.82;11.05;98170.50;5073901;28;20050;-65
2022/01/04 02:21:42;;;;;;;0.70;0.52;;;;;;;22.83;11.10;98179.47;5073882;28;20033;-65
2022/01/04 02:24:07;;;;;;;0.60;0.60;;;;;;;22.86;10.97;98165.22;5056113;28;20020;-66
2022/01/04 02:26:33;;;;;;;0.60;0.60;;;;;;;22.77;11.11;98173.38;5054144;28;20032;-65
2022/01/04 02:28:59;;;;;;;0.60;0.60;;;;;;;22.81;10.95;98170.81;5053697;28;20021;-65
2022/01/04 02:31:24;;;;;;;0.50;0.50;;;;;;;22.80;11.09;98166.47;5053964;28;20029;-65
2022/01/04 02:33:50;;;;;;;0.50;0.50;;;;;;;22.78;11.34;98163.28;5053739;28;20025;-66
2022/01/04 02:36:15;;;;;;;0.50;0.50;;;;;;;22.78;11.09;98163.28;5053953;28;20032;-66
2022/01/04 02:38:41;;;;;;;0.70;0.70;;;;;;;22.76;11.15;98150.00;5054014;28;20025;-66
2022/01/04 02:41:06;;;;;;;0.70;0.70;;;;;;;22.81;11.10;98151.75;5052763;28;20052;-66
2022/01/04 02:43:32;;;;;;;0.50;0.50;;;;;;;22.81;10.96;98151.75;5053784;28;20021;-66
2022/01/04 02:45:57;;;;;;;0.60;0.60;;;;;;;22.80;11.05;98150.16;5053493;28;20040;-66
2022/01/04 02:48:23;;;;;;;0.73;0.73;;;;;;;22.73;11.16;98138.94;5053807;28;20031;-66
2022/01/04 02:50:50;;;;;;;0.60;0.60;;;;;;;22.82;11.21;98153.38;5053662;28;20036;-66
2022/01/04 02:53:16;;;;;;;0.60;0.60;;;;;;;22.80;11.10;98150.16;5053756;28;20032;-66
2022/01/04 02:55:41;;;;;;;0.63;0.63;;;;;;;22.77;11.21;98153.53;5053514;28;20032;-65
2022/01/04 02:58:07;;;;;;;0.70;0.70;;;;;;;22.75;11.30;98153.03;5053773;28;20043;-66
2022/01/04 03:00:32;;;;;;;0.60;0.60;;;;;;;22.79;11.24;98145.84;5054071;28;20028;-65
2022/01/04 03:02:57;;;;;;;0.70;0.70;;;;;;;22.76;11.26;98144.56;5055258;28;20475;-65
2022/01/04 03:05:23;;;;;;;0.60;0.60;;;;;;;22.79;11.22;98151.28;5053505;28;20037;-66
2022/01/04 03:07:48;;;;;;;0.60;0.60;;;;;;;22.72;11.28;98149.06;5053545;28;20029;-65
2022/01/04 03:10:14;;;;;;;0.52;0.52;;;;;;;22.77;11.26;98146.16;5053617;28;20033;-65
2022/01/04 03:12:42;;;;;;;0.60;0.60;;;;;;;22.79;10.98;98137.69;5053575;28;20029;-66
2022/01/04 03:15:08;;;;;;;0.70;0.57;;;;;;;22.76;11.28;98139.09;5053271;28;20032;-66
2022/01/04 03:17:34;;;;;;;0.57;0.57;;;;;;;22.73;11.37;98137.03;5053136;28;20045;-65
2022/01/04 03:19:59;;;;;;;0.60;0.60;;;;;;;22.73;11.26;98134.31;5053129;28;20529;-66
2022/01/04 03:22:25;;;;;;;0.63;0.63;;;;;;;22.75;11.32;98137.53;5055012;28;20033;-66
2022/01/04 03:24:50;;;;;;;0.60;0.60;;;;;;;22.80;11.31;98133.81;5073774;28;20028;-66
2022/01/04 03:27:15;;;;;;;0.77;0.70;;;;;;;22.75;11.30;98121.19;5074974;28;20031;-65
2022/01/04 03:29:41;;;;;;;0.77;0.75;;;;;;;22.76;11.31;98117.31;5075335;28;20032;-66
2022/01/04 03:32:07;;;;;;;0.60;0.60;;;;;;;22.80;11.24;98114.75;5077446;28;20020;-65
2022/01/04 03:34:34;;;;;;;0.60;0.60;;;;;;;22.80;11.39;98117.47;5077211;28;20027;-66
2022/01/04 03:36:59;;;;;;;0.55;0.55;;;;;;;22.69;11.42;98112.38;5077677;28;20040;-66
2022/01/04 03:39:24;;;;;;;0.50;0.50;;;;;;;22.75;11.43;98107.56;5077548;28;20041;-66
2022/01/04 03:41:51;;;;;;;0.70;0.70;;;;;;;22.80;11.38;98106.59;5077413;28;20036;-65
2022/01/04 03:44:20;;;;;;;0.70;0.70;;;;;;;22.72;11.39;98104.69;5073816;28;20056;-65
2022/01/04 03:46:49;;;;;;;0.65;0.65;;;;;;;22.69;11.40;98098.75;5073564;28;20036;-66
2022/01/04 03:49:14;;;;;;;0.60;0.60;;;;;;;22.71;11.54;98105.81;5072863;28;20021;-65
2022/01/04 03:51:41;;;;;;;0.70;0.70;;;;;;;22.78;11.42;98097.94;5073060;28;20024;-66
2022/01/04 03:54:06;;;;;;;0.60;0.60;;;;;;;22.78;11.43;98097.94;5073116;28;20048;-66
2022/01/04 03:56:32;;;;;;;0.70;0.70;;;;;;;22.76;11.32;98092.03;5072981;28;20094;-66
2022/01/04 03:58:57;;;;;;;0.60;0.60;;;;;;;22.76;11.38;98095.53;5073052;28;20036;-66
2022/01/04 04:01:23;;;;;;;0.70;0.70;;;;;;;22.78;11.25;98081.59;5073043;28;20036;-66
2022/01/04 04:03:48;;;;;;;0.70;0.70;;;;;;;22.82;11.29;98086.09;5072949;28;20456;-65
2022/01/04 04:06:13;;;;;;;0.60;0.60;;;;;;;22.81;11.22;98089.13;5072674;28;20035;-65
2022/01/04 04:08:39;;;;;;;0.55;0.55;;;;;;;22.83;11.30;98076.00;5072776;28;20070;-65
2022/01/04 04:11:04;;;;;;;0.60;0.60;;;;;;;22.88;11.49;98078.53;5072475;28;20479;-66
2022/01/04 04:13:30;;;;;;;0.60;0.60;;;;;;;22.92;11.21;98084.94;5073689;28;20028;-66
2022/01/04 04:15:55;;;;;;;0.60;0.60;;;;;;;22.93;11.25;98083.81;5076336;28;20053;-66
2022/01/04 04:18:21;;;;;;;0.50;0.50;;;;;;;22.95;11.27;98076.09;5076495;28;20479;-66
2022/01/04 04:20:47;;;;;;;0.70;0.70;;;;;;;23.03;11.19;98077.22;5076474;28;20020;-66
2022/01/04 04:23:12;;;;;;;0.63;0.63;;;;;;;23.06;11.07;98055.59;5067938;28;20391;-66
2022/01/04 04:25:38;;;;;;;0.60;0.60;;;;;;;23.04;11.22;98043.38;5056046;28;20029;-66
2022/01/04 04:28:03;;;;;;;0.60;0.60;;;;;;;23.09;11.27;98054.13;5056329;28;20025;-66
2022/01/04 04:30:29;;;;;;;0.70;0.70;;;;;;;23.10;11.18;98038.59;5054677;28;20025;-66
2022/01/04 04:32:54;;;;;;;0.77;0.70;;;;;;;23.14;11.14;98031.34;5056194;28;20025;-65
2022/01/04 04:35:19;;;;;;;0.68;0.68;;;;;;;23.13;11.23;98036.00;5056129;28;20021;-65
2022/01/04 04:37:45;;;;;;;0.50;0.50;;;;;;;23.17;11.13;98036.94;5055986;28;20017;-66
2022/01/04 04:40:10;;;;;;;0.60;0.60;;;;;;;23.17;11.12;98049.78;5055755;28;20021;-66
2022/01/04 04:42:36;;;;;;;0.55;0.55;;;;;;;23.18;11.09;98054.91;5055986;28;20031;-66
2022/01/04 04:45:02;;;;;;;0.50;0.50;;;;;;;23.23;11.21;98048.44;5055717;28;20021;-65
2022/01/04 04:47:27;;;;;;;0.60;0.60;;;;;;;23.17;11.10;98053.28;5055541;28;20025;-65
2022/01/04 04:49:53;;;;;;;0.60;0.60;;;;;;;23.18;11.15;98045.91;5055494;28;20032;-66
2022/01/04 04:52:18;;;;;;;0.60;0.60;;;;;;;23.25;11.11;98047.00;5054455;28;20090;-66
2022/01/04 04:54:44;;;;;;;0.52;0.52;;;;;;;23.24;11.22;98037.22;5055877;28;20021;-65
2022/01/04 04:57:09;;;;;;;0.60;0.60;;;;;;;23.24;10.97;98039.94;5055639;28;20021;-66
2022/01/04 04:59:35;;;;;;;0.70;0.70;;;;;;;23.26;11.23;98039.63;5055644;28;20475;-66
2022/01/04 05:02:01;;;;;;;0.50;0.50;;;;;;;23.33;11.11;98037.19;5055684;28;20475;-66
2022/01/04 05:04:26;;;;;;;0.60;0.60;;;;;;;23.29;11.21;98030.78;5055583;28;20044;-65
2022/01/04 05:06:53;;;;;;;0.70;0.70;;;;;;;23.31;11.13;98028.53;5055338;28;20028;-65
2022/01/04 05:09:19;;;;;;;0.60;0.60;;;;;;;23.36;11.30;98025.63;5055509;28;20043;-65
2022/01/04 05:11:44;;;;;;;0.60;0.60;;;;;;;23.38;11.03;98025.28;5054981;28;20391;-66
2022/01/04 05:14:10;;;;;;;0.60;0.60;;;;;;;23.36;10.99;98031.06;5054617;28;20018;-66
2022/01/04 05:16:35;;;;;;;0.70;0.70;;;;;;;23.43;11.14;98027.81;5055238;28;20045;-66
2022/01/04 05:19:00;;;;;;;0.60;0.60;;;;;;;23.44;10.86;98026.72;5055364;28;20025;-66
2022/01/04 05:21:26;;;;;;;0.50;0.50;;;;;;;23.40;10.96;98021.13;5055565;28;20036;-66
2022/01/04 05:23:54;;;;;;;0.65;0.65;;;;;;;23.43;10.96;98012.25;5067793;28;20055;-66
2022/01/04 05:26:19;;;;;;;0.60;0.60;;;;;;;23.47;10.99;98006.16;5075155;28;20033;-66
2022/01/04 05:28:45;;;;;;;0.80;0.80;;;;;;;23.49;10.91;97995.72;5074762;28;20467;-65
2022/01/04 05:31:12;;;;;;;0.65;0.65;;;;;;;23.49;11.12;98009.34;5074849;28;20033;-66
2022/01/04 05:33:37;;;;;;;0.50;0.50;;;;;;;23.50;11.07;97997.31;5074775;28;20052;-66
2022/01/04 05:36:03;;;;;;;0.52;0.52;;;;;;;23.53;11.11;97996.66;5074780;28;20514;-65
2022/01/04 05:38:28;;;;;;;0.60;0.60;;;;;;;23.55;10.97;97992.47;5074646;28;20025;-65
2022/01/04 05:40:54;;;;;;;0.60;0.60;;;;;;;23.59;11.10;97989.88;5074727;28;20055;-66
2022/01/04 05:43:19;;;;;;;0.63;0.63;;;;;;;23.59;11.00;97984.41;5074644;28;20029;-66
2022/01/04 05:45:44;;;;;;;4.40;2.00;;;;;;;23.55;11.38;97983.50;5074294;28;20033;-66
2022/01/04 05:48:10;;;;;;;1.45;1.10;;;;;;;23.39;11.19;97980.56;5074646;28;20073;-66
2022/01/04 05:50:35;;;;;;;0.98;0.80;;;;;;;23.47;11.18;97979.69;5073187;28;20024;-66
2022/01/04 05:53:00;;;;;;;2.30;0.68;;;;;;;23.49;11.13;97977.44;5074286;28;20029;-65
2022/01/04 05:55:26;;;;;;;0.77;0.75;;;;;;;23.54;11.39;97981.88;5074025;28;20447;-67
2022/01/04 05:57:51;;;;;;;0.57;0.57;;;;;;;23.56;11.24;97975.00;5074055;28;20020;-66
2022/01/04 06:00:17;;;;;;;0.95;0.70;;;;;;;23.51;11.35;97979.81;5073942;28;20483;-67
2022/01/04 06:02:42;;;;;;;0.60;0.60;;;;;;;23.60;11.34;97970.47;5073611;28;20032;-66
2022/01/04 06:05:09;;;;;;;0.55;0.55;;;;;;;23.63;11.28;97975.25;5073103;28;20029;-66
2022/01/04 06:07:35;;;;;;;0.57;0.57;;;;;;;23.65;11.50;97974.91;5073804;28;20033;-66
2022/01/04 06:10:01;;;;;;;0.60;0.60;;;;;;;23.72;11.60;97977.91;5073831;28;20024;-66
2022/01/04 06:14:58;;;;;;;0.57;0.57;;;;;;;23.65;11.38;97960.50;5074216;28;20044;-66
2022/01/04 06:17:29;;;;;;;3.35;0.70;;;;;;;23.75;11.54;97965.53;5073404;28;20044;-67
2022/01/04 06:19:55;;;;;;;2.08;0.70;;;;;;;23.78;11.27;97960.22;5074265;28;20352;-66
2022/01/04 06:22:22;;;;;;;0.77;0.60;;;;;;;23.86;11.45;97958.56;5073936;28;20106;-66
2022/01/04 06:24:48;;;;;;;0.75;0.75;;;;;;;23.90;11.42;97950.50;5034237;28;20030;-67
2022/01/04 06:27:13;;;;;;;0.60;0.52;;;;;;;23.97;11.32;97950.75;5034137;28;20391;-67
2022/01/04 06:29:39;;;;;;;1.00;0.68;;;;;;;23.99;11.39;97954.75;5034318;28;20026;-66
2022/01/04 06:32:05;;;;;;;0.80;0.80;;;;;;;23.99;11.37;97971.13;5034231;28;20021;-67
2022/01/04 06:34:30;;;;;;;0.93;0.63;;;;;;;24.03;11.66;97965.00;5034285;28;20018;-66
2022/01/04 06:36:56;;;;;;;0.68;0.50;;;;;;;24.08;11.56;97968.31;5033291;28;20354;-66
2022/01/04 06:39:21;;;;;;;0.50;0.50;;;;;;;24.04;11.59;97961.91;5034032;28;20049;-67
2022/01/04 06:41:47;;;;;;;0.57;0.57;;;;;;;24.08;11.29;97960.13;5033766;28;20033;-67
2022/01/04 06:44:12;;;;;;;1.33;0.60;;;;;;;24.14;11.71;97952.53;5034104;28;20026;-67
2022/01/04 06:46:38;;;;;;;0.85;0.57;;;;;;;24.15;11.32;97951.41;5033720;28;20463;-66
2022/01/04 06:49:04;;;;;;;0.50;0.50;;;;;;;24.20;11.44;97953.91;5034134;28;20074;-67
2022/01/04 06:51:29;;;;;;;0.50;0.50;;;;;;;24.18;11.56;97946.06;5034885;28;20029;-66
2022/01/04 06:53:55;;;;;;;0.57;0.57;;;;;;;24.28;11.52;97944.81;5034751;28;20033;-65
2022/01/04 06:56:20;;;;;;;3.47;0.70;;;;;;;24.24;11.29;97932.19;5033963;28;20021;-65
2022/01/04 06:58:45;;;;;;;0.82;0.47;;;;;;;24.28;11.33;97927.66;5032991;28;20026;-65
2022/01/04 07:01:11;;;;;;;0.65;0.60;;;;;;;24.27;11.23;97920.63;5033564;28;20036;-66
2022/01/04 07:03:36;;;;;;;0.65;0.60;;;;;;;24.25;11.29;97922.88;5033382;28;20475;-67
2022/01/04 07:06:02;;;;;;;0.50;0.50;;;;;;;24.27;11.41;97920.63;5032060;28;20032;-66
2022/01/04 07:08:27;;;;;;;0.82;0.75;;;;;;;24.32;11.41;97914.94;5033667;28;20372;-67
2022/01/04 07:10:52;;;;;;;0.95;0.70;;;;;;;24.32;11.65;97917.66;5033704;28;20021;-67
2022/01/04 07:13:18;;;;;;;0.60;0.50;;;;;;;24.32;11.52;97913.00;5033653;28;20375;-66
2022/01/04 07:15:45;;;;;;;0.45;0.45;;;;;;;24.33;11.76;97913.78;5032692;28;20403;-66
2022/01/04 07:18:11;;;;;;;0.60;0.57;;;;;;;24.35;11.64;97900.59;5033739;28;20042;-66
2022/01/04 07:20:36;;;;;;;0.57;0.57;;;;;;;24.41;11.71;97903.91;5031592;28;20079;-67
2022/01/04 07:23:02;;;;;;;0.50;0.50;;;;;;;24.44;11.70;97898.56;5042446;28;20059;-66
2022/01/04 07:25:28;;;;;;;0.80;0.65;;;;;;;24.44;11.71;97890.38;5072673;28;20020;-66
2022/01/04 07:27:53;;;;;;;1.63;0.43;;;;;;;24.52;11.46;97894.13;5072863;28;20024;-65
2022/01/04 07:30:19;;;;;;;0.50;0.50;;;;;;;24.51;11.52;97898.00;5072520;28;20025;-65
2022/01/04 07:32:44;;;;;;;0.52;0.52;;;;;;;24.51;11.34;97890.59;5071259;28;20044;-65
2022/01/04 07:35:10;;;;;;;3.42;1.55;;;;;;;24.37;11.94;97890.16;5073005;28;20028;-66
2022/01/04 07:37:35;;;;;;;5.40;2.20;;;;;;;24.27;12.01;97887.88;5073177;28;20070;-64
2022/01/04 07:40:00;;;;;;;5.28;1.75;;;;;;;24.58;11.61;97889.25;5073419;28;20048;-67
2022/01/04 07:42:26;;;;;;;2.00;1.13;;;;;;;24.53;11.57;97882.88;5072780;28;20379;-66
2022/01/04 07:44:51;;;;;;;3.10;1.30;;;;;;;24.73;11.81;97878.47;5072413;28;20425;-66
2022/01/04 07:47:17;;;;;;;2.72;1.05;;;;;;;24.78;11.59;97863.75;5072417;28;20024;-65
2022/01/04 07:49:42;;;;;;;2.17;0.90;;;;;;;24.76;11.80;97866.03;5075331;28;20025;-64
2022/01/04 07:52:08;;;;;;;1.10;1.00;;;;;;;24.76;11.87;97863.31;5076049;28;20028;-66
2022/01/04 07:54:33;;;;;;;1.52;0.90;;;;;;;24.76;11.74;97865.25;5076520;28;20024;-65
2022/01/04 07:56:58;;;;;;;1.40;0.77;;;;;;;24.79;11.82;97859.91;5075479;28;20032;-66
2022/01/04 07:59:28;;;;;;;2.53;0.80;;;;;;;24.83;11.74;97860.00;5076596;28;20387;-66
2022/01/04 08:01:53;;;;;;;1.60;0.80;;;;;;;24.86;11.75;97853.88;5076854;28;20039;-66
2022/01/04 08:04:19;;;;;;;0.93;0.63;;;;;;;24.86;11.84;97854.66;5077148;28;20363;-65
2022/01/04 08:06:44;;;;;;;2.17;1.27;;;;;;;24.87;11.88;97848.06;5076274;28;20070;-66
2022/01/04 08:09:09;;;;;;;1.67;1.00;;;;;;;24.89;12.04;97856.69;5076663;28;20033;-66
2022/01/04 08:11:35;;;;;;;0.90;0.80;;;;;;;24.92;11.99;97847.81;5076271;28;20398;-67
2022/01/04 08:14:00;;;;;;;1.23;0.80;;;;;;;25.00;11.58;97845.28;5076048;28;20082;-66
2022/01/04 08:16:26;;;;;;;1.23;0.82;;;;;;;25.00;11.84;97843.34;5075585;28;20044;-66
2022/01/04 08:18:51;;;;;;;0.85;0.70;;;;;;;24.98;11.51;97839.38;5074541;28;20021;-66
2022/01/04 08:21:16;;;;;;;0.50;0.50;;;;;;;25.01;11.77;97839.50;5076517;28;20037;-67
2022/01/04 08:23:42;;;;;;;0.80;0.60;;;;;;;24.98;11.71;97836.66;5065201;28;20025;-66
2022/01/04 08:26:07;;;;;;;1.92;0.65;;;;;;;24.97;11.84;97840.50;5055831;28;20333;-66
2022/01/04 08:28:32;;;;;;;0.55;0.50;;;;;;;25.02;11.63;97843.00;5056376;28;20070;-65
2022/01/04 08:30:58;;;;;;;0.52;0.52;;;;;;;25.10;11.62;97837.41;5056573;28;20025;-65
2022/01/04 08:33:23;;;;;;;0.60;0.60;;;;;;;25.11;11.55;97839.00;5054143;28;20444;-65
2022/01/04 08:35:49;;;;;;;0.63;0.60;;;;;;;25.05;11.57;97842.31;5055424;28;20058;-65
2022/01/04 08:38:14;;;;;;;0.75;0.60;;;;;;;25.10;11.95;97844.81;5056461;28;20036;-67
2022/01/04 08:40:39;;;;;;;0.80;0.80;;;;;;;25.10;11.70;97839.34;5057440;28;20075;-66
2022/01/04 08:43:05;;;;;;;1.08;0.65;;;;;;;25.07;11.62;97829.09;5056156;28;20388;-66
2022/01/04 08:45:31;;;;;;;0.68;0.52;;;;;;;25.11;11.75;97830.00;5055052;28;20025;-66
2022/01/04 08:47:57;;;;;;;0.82;0.60;;;;;;;25.10;11.39;97831.16;5055434;28;20028;-67
2022/01/04 08:50:22;;;;;;;1.02;0.70;;;;;;;25.09;11.61;97830.38;5055082;28;20025;-66
2022/01/04 08:52:52;;;;;;;0.60;0.60;;;;;;;25.10;11.69;97825.69;5055116;28;20044;-65
2022/01/04 08:55:18;;;;;;;0.50;0.50;;;;;;;25.16;11.47;97823.50;5055112;28;20025;-66
2022/01/04 08:57:43;;;;;;;0.70;0.40;;;;;;;25.17;11.63;97820.41;5054873;28;20029;-66
2022/01/04 09:00:09;;;;;;;0.45;0.43;;;;;;;25.14;11.27;97818.38;5054581;28;20024;-66
2022/01/04 09:02:35;;;;;;;1.35;0.70;;;;;;;25.10;11.34;97814.75;5057190;28;20039;-66
2022/01/04 09:05:01;;;;;;;0.43;0.43;;;;;;;25.13;11.62;97808.59;5056311;28;20025;-67
2022/01/04 09:07:26;;;;;;;0.60;0.60;;;;;;;25.17;11.37;97808.69;5037122;28;20025;-67
2022/01/04 09:09:52;;;;;;;1.85;0.55;;;;;;;25.18;11.40;97802.06;5056702;28;20021;-67
2022/01/04 09:12:19;;;;;;;0.40;0.40;;;;;;;25.16;11.72;97802.41;5056762;28;20033;-67
2022/01/04 09:20:03;;;;;;;0.73;0.40;;;;;;;25.19;11.72;97787.28;5056114;28;20423;-67
2022/01/04 09:22:29;;;;;;;1.65;0.70;;;;;;;25.15;11.67;97787.19;5055218;28;20032;-65
2022/01/04 09:24:54;;;;;;;0.30;0.30;;;;;;;25.15;11.58;97779.00;5072878;28;20020;-64
2022/01/04 09:27:19;;;;;;;0.90;0.60;;;;;;;25.16;11.59;97786.03;5075453;28;20032;-64
2022/01/04 09:29:45;;;;;;;0.45;0.45;;;;;;;25.18;11.79;97772.84;5075674;28;20472;-67
2022/01/04 09:32:16;;;;;;;0.50;0.50;;;;;;;25.17;11.54;97771.22;5075631;28;20033;-65
2022/01/04 09:34:42;;;;;;;0.50;0.50;;;;;;;25.18;11.55;97772.84;5075758;28;20024;-66
2022/01/04 09:37:07;;;;;;;0.40;0.40;;;;;;;25.21;11.34;97771.31;5074768;28;20035;-66
2022/01/04 09:39:32;;;;;;;0.52;0.40;;;;;;;25.16;11.66;97775.09;5074651;28;20032;-66
2022/01/04 09:41:59;;;;;;;0.47;0.47;;;;;;;25.20;11.72;97781.47;5075076;28;20032;-65
2022/01/04 09:44:25;;;;;;;0.40;0.40;;;;;;;25.18;11.48;97786.50;5074677;28;20028;-66
2022/01/04 09:46:51;;;;;;;0.52;0.50;;;;;;;25.21;11.56;97796.72;5074883;28;20028;-65
2022/01/04 09:49:17;;;;;;;0.45;0.45;;;;;;;25.19;11.59;97774.41;5074315;28;20047;-65
2022/01/04 09:51:42;;;;;;;0.60;0.60;;;;;;;25.20;11.62;97776.00;5074080;28;20025;-65
2022/01/04 09:54:08;;;;;;;0.70;0.50;;;;;;;25.20;11.54;97767.00;5075594;28;20029;-65
2022/01/04 09:56:33;;;;;;;0.40;0.40;;;;;;;25.21;11.30;97771.31;5075073;28;20036;-66
2022/01/04 09:58:58;;;;;;;0.50;0.50;;;;;;;25.25;11.71;97761.28;5074026;28;20108;-66
2022/01/04 10:01:28;;;;;;;1.70;0.60;;;;;;;25.23;11.56;97761.66;5074407;28;20035;-66
2022/01/04 10:03:54;;;;;;;0.38;0.38;;;;;;;25.22;11.37;97765.50;5072681;28;20536;-66
2022/01/04 10:06:19;;;;;;;0.65;0.52;;;;;;;25.28;11.88;97750.50;5074187;28;20020;-65
2022/01/04 10:09:06;;;;;;;0.30;0.30;;;;;;;25.32;11.57;97755.25;5073866;28;20371;-66
2022/01/04 10:11:36;;;;;;;0.50;0.40;;;;;;;25.29;11.74;97746.59;5073108;28;20029;-65
2022/01/04 10:14:22;;;;;;;0.98;0.40;;;;;;;25.37;11.66;97744.06;5073961;28;20507;-67
2022/01/04 10:16:55;;;;;;;0.57;0.57;;;;;;;25.26;11.42;97747.28;5072935;28;20466;-66
2022/01/04 10:19:47;;;;;;;0.60;0.60;;;;;;;25.43;11.95;97739.94;5073810;28;20021;-66
2022/01/04 10:22:23;;;;;;;0.52;0.50;;;;;;;25.38;12.22;97731.97;5071288;28;20066;-67
2022/01/04 10:25:07;;;;;;;0.40;0.40;;;;;;;25.37;11.92;97741.31;5057084;28;20032;-68
2022/01/04 10:27:35;;;;;;;0.50;0.50;;;;;;;25.40;11.71;97716.03;5053768;28;20029;-69
2022/01/04 10:30:13;;;;;;;0.75;0.40;;;;;;;25.45;11.72;97727.47;5054027;28;20166;-69
2022/01/04 10:33:05;;;;;;;0.60;0.60;;;;;;;25.45;11.76;97724.75;5053017;28;20532;-66
2022/01/04 10:35:44;;;;;;;0.47;0.47;;;;;;;25.43;11.81;97721.56;5048528;28;20045;-66
2022/01/04 10:38:13;;;;;;;0.90;0.80;;;;;;;25.49;11.58;97705.69;5052022;28;20390;-66
2022/01/04 10:40:40;;;;;;;2.45;1.30;;;;;;;25.45;11.95;97704.81;5053213;28;20521;-68
2022/01/04 10:43:07;;;;;;;4.97;1.60;;;;;;;25.46;12.03;97706.44;5053363;28;20159;-67
2022/01/04 10:45:33;;;;;;;3.72;1.85;;;;;;;25.48;12.03;97704.13;5053336;28;20040;-66
2022/01/04 10:48:28;;;;;;;4.43;1.65;;;;;;;25.48;11.95;97693.97;5053180;28;20475;-67
2022/01/04 10:50:58;;;;;;;3.83;1.42;;;;;;;25.51;12.08;97697.97;5011130;28;20042;-66
2022/01/04 10:53:25;;;;;;;5.53;1.60;;;;;;;25.39;12.06;97690.63;5010691;28;20083;-67
2022/01/04 10:55:54;;;;;;;1.60;1.13;;;;;;;25.49;12.17;97694.75;5011099;28;20034;-68
2022/01/04 10:58:25;;;;;;;2.05;0.90;;;;;;;25.46;12.33;97690.81;5010996;28;20081;-68
2022/01/04 11:00:51;;;;;;;2.13;1.25;;;;;;;25.41;12.41;97687.53;5011076;28;20038;-67
2022/01/04 11:03:23;;;;;;;2.95;1.27;;;;;;;25.41;12.03;97687.53;5011767;28;20424;-68
2022/01/04 11:05:52;;;;;;;1.90;1.45;;;;;;;25.47;11.97;97689.66;5011080;28;20052;-66
2022/01/04 11:08:17;;;;;;;2.85;1.20;;;;;;;25.41;12.41;97676.63;5011308;28;20038;-67
2022/01/04 11:10:43;;;;;;;3.97;1.20;;;;;;;25.41;12.27;97677.41;4994771;28;20060;-67
2022/01/04 11:13:08;;;;;;;2.90;1.30;;;;;;;25.49;12.15;97672.88;5010895;28;20421;-68
2022/01/04 11:15:34;;;;;;;3.25;1.50;;;;;;;25.50;12.17;97660.81;5010781;28;20393;-67
2022/01/04 11:17:59;;;;;;;3.17;1.73;;;;;;;25.49;12.01;97657.28;5010705;28;20053;-67
2022/01/04 11:20:25;;;;;;;2.47;1.13;;;;;;;25.48;12.47;97654.91;5010862;28;20050;-67
2022/01/04 11:22:50;;;;;;;2.58;1.33;;;;;;;25.39;12.05;97652.34;5013781;28;20477;-67
2022/01/04 11:25:17;;;;;;;1.40;0.90;;;;;;;25.33;12.10;97653.75;5017417;28;20034;-67
2022/01/04 11:27:42;;;;;;;2.13;0.82;;;;;;;25.37;12.30;97654.66;5046356;28;20436;-68
2022/01/04 11:30:23;;;;;;;1.38;0.70;;;;;;;25.51;12.32;97648.75;5059297;28;20032;-67
2022/01/04 11:32:52;;;;;;;1.08;0.60;;;;;;;25.51;12.17;97648.75;5058185;28;20021;-67
2022/01/04 11:35:22;;;;;;;0.90;0.60;;;;;;;25.53;12.28;97640.97;5041442;28;20033;-67
2022/01/04 11:37:52;;;;;;;0.80;0.70;;;;;;;25.54;12.32;97642.53;5057785;28;20071;-68
2022/01/04 11:40:31;;;;;;;0.80;0.50;;;;;;;25.53;12.66;97643.72;5059191;28;20027;-67